Time;durP1;ratioP1;P1;durP2;ratioP2;P2;SDS_P1;SDS_P2;PMS_P1;PMS_P2;Temp;Humidity;BMP_temperature;BMP_pressure;BME280_temperature;BME280_humidity;BME280_pressure;Samples;Min_cycle;Max_cycle;Signal;HPM_P1;HPM_P2
2022/06/04 00:04:41;;;;;;;2.88;2.38;;;;;17.70;101216.00;;;;10432407;28;20225;-83
2022/06/04 00:15:29;;;;;;;3.20;2.37;;;;;17.70;101221.00;;;;10445838;28;20197;-83
2022/06/04 00:20:27;;;;;;;7.78;2.47;;;;;17.70;101235.00;;;;10419604;28;20220;-83
2022/06/04 00:25:29;;;;;;;6.53;2.67;;;;;17.70;101233.00;;;;10430058;28;20198;-83
2022/06/04 00:30:32;;;;;;;5.03;2.60;;;;;17.60;101218.00;;;;10420606;28;20202;-83
2022/06/04 00:35:35;;;;;;;2.73;2.53;;;;;17.60;101222.00;;;;10442482;28;20200;-83
2022/06/04 00:41:11;;;;;;;3.43;2.10;;;;;17.60;101223.00;;;;10446086;28;20251;-83
2022/06/04 00:46:41;;;;;;;4.20;2.47;;;;;17.50;101225.00;;;;10462521;28;20198;-83
2022/06/04 00:51:50;;;;;;;3.70;2.27;;;;;17.40;101231.00;;;;10457364;28;20208;-83
2022/06/04 00:57:04;;;;;;;2.20;2.00;;;;;17.30;101239.00;;;;10446475;28;20292;-83
2022/06/04 01:02:15;;;;;;;4.27;2.40;;;;;17.30;101244.00;;;;10479421;28;20749;-83
2022/06/04 01:07:27;;;;;;;3.93;2.30;;;;;17.30;101264.00;;;;10461845;28;20217;-83
2022/06/04 01:13:01;;;;;;;3.33;2.50;;;;;17.20;101264.00;;;;10480478;28;20247;-83
2022/06/04 01:18:10;;;;;;;4.40;2.33;;;;;17.20;101263.00;;;;10445024;28;20204;-83
2022/06/04 01:23:43;;;;;;;7.40;2.60;;;;;17.20;101272.00;;;;10429467;28;20202;-83
2022/06/04 01:29:00;;;;;;;5.87;2.80;;;;;17.20;101263.00;;;;10421500;28;20226;-83
2022/06/04 01:34:06;;;;;;;3.77;2.40;;;;;17.10;101259.00;;;;10425374;28;20280;-84
2022/06/04 01:39:15;;;;;;;4.13;2.23;;;;;17.10;101256.00;;;;10425355;28;20233;-82
2022/06/04 01:44:25;;;;;;;6.57;2.50;;;;;17.00;101253.00;;;;10440496;28;20673;-82
2022/06/04 01:49:45;;;;;;;4.40;2.50;;;;;17.00;101245.00;;;;10440814;28;20993;-83
2022/06/04 01:54:59;;;;;;;3.07;2.20;;;;;16.90;101259.00;;;;10448901;28;20196;-82
2022/06/04 02:00:16;;;;;;;6.23;2.97;;;;;16.90;101249.00;;;;10449251;28;20206;-82
2022/06/04 02:05:23;;;;;;;7.10;2.60;;;;;16.80;101254.00;;;;10448482;28;20692;-82
2022/06/04 02:10:31;;;;;;;8.47;2.83;;;;;16.80;101251.00;;;;10459882;28;20193;-84
2022/06/04 02:15:56;;;;;;;3.07;2.43;;;;;16.70;101253.00;;;;10466590;28;20228;-83
2022/06/04 02:20:58;;;;;;;4.27;2.77;;;;;16.70;101244.00;;;;10425715;28;20210;-82
2022/06/04 02:26:00;;;;;;;4.90;2.53;;;;;16.60;101229.00;;;;10421935;28;20209;-82
2022/06/04 02:31:15;;;;;;;4.97;2.80;;;;;16.60;101217.00;;;;10436775;28;20539;-83
2022/06/04 02:36:40;;;;;;;9.23;2.83;;;;;16.50;101232.00;;;;10423750;28;20190;-83
2022/06/04 02:41:51;;;;;;;7.90;2.87;;;;;16.50;101227.00;;;;10403511;28;20619;-83
2022/06/04 02:47:14;;;;;;;3.63;2.47;;;;;16.40;101226.00;;;;10418457;28;20209;-82
2022/06/04 02:52:17;;;;;;;4.67;2.27;;;;;16.30;101222.00;;;;10455429;28;20181;-82
2022/06/04 02:57:19;;;;;;;5.27;2.33;;;;;16.30;101207.00;;;;10418904;28;20194;-82
2022/06/04 03:02:26;;;;;;;5.57;2.73;;;;;16.20;101214.00;;;;10419262;28;20738;-83
2022/06/04 03:07:28;;;;;;;5.47;2.30;;;;;16.20;101211.00;;;;10444476;28;20217;-83
2022/06/04 03:12:30;;;;;;;4.77;2.60;;;;;16.10;101211.00;;;;10430284;28;20209;-83
2022/06/04 03:17:32;;;;;;;6.33;2.47;;;;;16.00;101210.00;;;;10420135;28;20194;-82
2022/06/04 03:22:35;;;;;;;3.57;2.53;;;;;16.00;101213.00;;;;10441482;28;20206;-82
2022/06/04 03:27:37;;;;;;;3.20;2.63;;;;;15.90;101213.00;;;;10439298;28;20205;-83
2022/06/04 03:32:40;;;;;;;4.87;2.07;;;;;15.80;101215.00;;;;10442921;28;20194;-83
2022/06/04 03:37:42;;;;;;;3.47;2.40;;;;;15.60;101234.00;;;;10421118;28;20652;-83
2022/06/04 03:42:44;;;;;;;4.73;2.63;;;;;15.60;101253.00;;;;10413488;28;20214;-83
2022/06/04 03:47:46;;;;;;;4.53;2.40;;;;;15.50;101267.00;;;;10419534;28;20194;-82
2022/06/04 03:52:49;;;;;;;4.23;2.47;;;;;15.40;101263.00;;;;10457788;28;20174;-83
2022/06/04 03:57:52;;;;;;;5.33;2.57;;;;;15.50;101273.00;;;;10430768;28;20221;-82
2022/06/04 04:03:12;;;;;;;5.27;2.40;;;;;15.50;101279.00;;;;10416225;28;20573;-82
2022/06/04 04:08:15;;;;;;;5.37;2.67;;;;;15.50;101294.00;;;;10432313;28;20184;-82
2022/06/04 04:13:18;;;;;;;4.10;2.17;;;;;15.50;101297.00;;;;10441488;28;20221;-82
2022/06/04 04:18:20;;;;;;;3.30;2.40;;;;;15.50;101302.00;;;;10455248;28;20206;-82
2022/06/04 04:23:22;;;;;;;3.87;2.70;;;;;15.50;101312.00;;;;10472783;28;20602;-82
2022/06/04 04:28:24;;;;;;;2.93;2.43;;;;;15.50;101333.00;;;;10439853;28;20216;-83
2022/06/04 04:33:26;;;;;;;5.60;2.60;;;;;15.50;101328.00;;;;10453465;28;20663;-82
2022/06/04 04:38:28;;;;;;;2.77;2.57;;;;;15.60;101325.00;;;;10455841;28;20190;-83
2022/06/04 04:43:30;;;;;;;6.97;2.93;;;;;15.60;101321.00;;;;10472121;28;20656;-82
2022/06/04 04:48:33;;;;;;;6.80;2.83;;;;;15.70;101327.00;;;;10437449;28;20553;-83
2022/06/04 04:53:35;;;;;;;3.03;2.80;;;;;15.70;101324.00;;;;10455505;28;20194;-83
2022/06/04 04:58:37;;;;;;;4.90;2.90;;;;;15.80;101329.00;;;;10438447;28;20236;-83
2022/06/04 05:03:39;;;;;;;3.93;2.70;;;;;15.90;101334.00;;;;10436426;28;20689;-82
2022/06/04 05:08:42;;;;;;;3.20;2.70;;;;;15.90;101334.00;;;;10435641;28;20244;-84
2022/06/04 05:13:49;;;;;;;6.73;3.00;;;;;16.00;101332.00;;;;10438698;28;20206;-84
2022/06/04 05:18:51;;;;;;;3.33;3.03;;;;;16.20;101335.00;;;;10438686;28;20271;-83
2022/06/04 05:23:54;;;;;;;3.60;2.83;;;;;16.40;101337.00;;;;10459968;28;20194;-83
2022/06/04 05:28:57;;;;;;;3.37;2.90;;;;;16.50;101335.00;;;;10460557;28;20181;-83
2022/06/04 05:33:58;;;;;;;3.50;2.73;;;;;16.70;101329.00;;;;10458601;28;20197;-83
2022/06/04 05:39:01;;;;;;;4.90;3.10;;;;;16.80;101329.00;;;;10455498;28;20275;-83
2022/06/04 05:44:04;;;;;;;5.80;3.43;;;;;16.90;101323.00;;;;10406428;28;20204;-84
2022/06/04 05:49:06;;;;;;;4.50;3.10;;;;;17.10;101336.00;;;;10434365;28;20369;-83
2022/06/04 05:54:09;;;;;;;5.07;3.20;;;;;17.10;101352.00;;;;10448305;28;20251;-83
2022/06/04 05:59:14;;;;;;;6.23;3.00;;;;;17.10;101370.00;;;;10420410;28;20237;-83
2022/06/04 06:04:18;;;;;;;3.87;3.30;;;;;17.00;101377.00;;;;10455609;28;20293;-83
2022/06/04 06:09:23;;;;;;;6.17;3.70;;;;;16.90;101377.00;;;;10448823;28;20197;-83
2022/06/04 06:14:25;;;;;;;6.27;3.50;;;;;16.80;101381.00;;;;10447789;28;20201;-82
2022/06/04 06:19:28;;;;;;;5.50;3.70;;;;;16.90;101378.00;;;;10441304;28;20216;-83
2022/06/04 06:24:30;;;;;;;10.37;4.30;;;;;16.80;101365.00;;;;10461730;28;20197;-84
2022/06/04 06:29:32;;;;;;;4.67;3.60;;;;;17.00;101366.00;;;;10494502;28;20217;-84
2022/06/04 06:34:34;;;;;;;8.00;4.00;;;;;17.20;101367.00;;;;10420573;28;20224;-82
2022/06/04 06:39:36;;;;;;;4.17;3.77;;;;;17.50;101367.00;;;;10418747;28;20241;-83
2022/06/04 06:44:38;;;;;;;4.67;3.93;;;;;17.90;101372.00;;;;10442681;28;20197;-84
2022/06/04 06:49:40;;;;;;;7.07;4.37;;;;;18.30;101390.00;;;;10459843;28;20189;-83
2022/06/04 06:54:46;;;;;;;6.40;4.10;;;;;18.50;101387.00;;;;10443234;28;20668;-84
2022/06/04 06:59:49;;;;;;;8.53;4.43;;;;;18.90;101375.00;;;;10454373;28;20273;-83
2022/06/04 07:04:51;;;;;;;4.65;4.20;;;;;19.30;101402.00;;;;10447334;28;20275;-84
2022/06/04 07:09:54;;;;;;;5.10;3.97;;;;;19.40;101406.00;;;;10426560;28;20240;-82
2022/06/04 07:14:56;;;;;;;6.72;4.32;;;;;19.70;101404.00;;;;10431358;28;20239;-82
2022/06/04 07:19:58;;;;;;;7.43;4.90;;;;;20.20;101395.00;;;;10463022;28;20203;-83
2022/06/04 07:25:00;;;;;;;7.63;4.90;;;;;20.80;101391.00;;;;10416221;28;20198;-82
2022/06/04 07:30:03;;;;;;;7.18;4.45;;;;;20.90;101371.00;;;;10430077;28;20190;-82
2022/06/04 07:35:05;;;;;;;5.25;4.18;;;;;21.30;101365.00;;;;10442346;28;20652;-83
2022/06/04 07:40:08;;;;;;;7.32;4.88;;;;;21.40;101367.00;;;;10437000;28;20213;-82
2022/06/04 07:45:10;;;;;;;5.78;5.03;;;;;21.00;101366.00;;;;10459004;28;20267;-83
2022/06/04 07:50:13;;;;;;;6.18;4.65;;;;;20.60;101369.00;;;;10430000;28;20200;-82
2022/06/04 07:55:15;;;;;;;5.53;4.90;;;;;21.00;101377.00;;;;10434924;28;20198;-83
2022/06/04 08:00:19;;;;;;;6.72;5.30;;;;;21.90;101388.00;;;;10429075;28;20209;-82
2022/06/04 08:05:21;;;;;;;8.05;4.80;;;;;23.00;101397.00;;;;10467485;28;20218;-83
2022/06/04 08:10:24;;;;;;;6.25;5.10;;;;;23.10;101401.00;;;;10451558;28;20232;-82
2022/06/04 08:15:26;;;;;;;9.38;5.13;;;;;23.10;101385.00;;;;10434208;28;20284;-83
2022/06/04 08:20:40;;;;;;;6.70;5.50;;;;;23.30;101381.00;;;;10451191;28;20688;-83
2022/06/04 08:25:46;;;;;;;6.03;5.53;;;;;23.20;101391.00;;;;10438861;28;20216;-83
2022/06/04 08:31:04;;;;;;;8.40;5.50;;;;;23.60;101386.00;;;;10435925;28;20209;-82
2022/06/04 08:36:08;;;;;;;7.20;5.53;;;;;23.60;101376.00;;;;10433734;28;20295;-82
2022/06/04 08:41:25;;;;;;;7.90;5.60;;;;;23.20;101381.00;;;;10432958;28;20220;-82
2022/06/04 08:46:39;;;;;;;9.02;6.00;;;;;24.20;101382.00;;;;10416628;28;20196;-83
2022/06/04 08:51:43;;;;;;;8.43;6.07;;;;;25.00;101380.00;;;;10459589;28;20219;-83
2022/06/04 09:02:16;;;;;;;7.85;6.05;;;;;25.70;101381.00;;;;10465491;28;20210;-82
2022/06/04 09:07:33;;;;;;;12.32;6.38;;;;;25.90;101397.00;;;;10464227;28;20217;-83
2022/06/04 09:12:57;;;;;;;10.40;7.10;;;;;25.10;101395.00;;;;10452460;28;20193;-83
2022/06/04 09:18:06;;;;;;;7.10;6.35;;;;;25.50;101406.00;;;;10452873;28;20190;-82
2022/06/04 09:23:11;;;;;;;8.48;5.05;;;;;26.30;101400.00;;;;10445975;28;20202;-83
2022/06/04 09:28:28;;;;;;;7.05;6.15;;;;;27.20;101409.00;;;;10446599;28;20397;-83
2022/06/04 09:33:57;;;;;;;7.43;6.55;;;;;27.80;101416.00;;;;10456949;28;20185;-82
2022/06/04 09:39:20;;;;;;;10.18;6.70;;;;;28.10;101435.00;;;;10460967;28;20212;-83
2022/06/04 09:44:24;;;;;;;7.72;6.50;;;;;28.60;101434.00;;;;10453091;28;20201;-82
2022/06/04 09:49:35;;;;;;;7.93;7.03;;;;;28.40;101439.00;;;;10466822;28;20697;-82
2022/06/04 09:54:40;;;;;;;8.18;7.38;;;;;27.40;101448.00;;;;10417097;28;20192;-81
2022/06/04 09:59:53;;;;;;;8.10;6.95;;;;;27.40;101450.00;;;;10444546;28;20550;-82
2022/06/04 10:05:17;;;;;;;9.55;7.70;;;;;27.20;101450.00;;;;10465151;28;20248;-81
2022/06/04 10:10:40;;;;;;;10.15;8.15;;;;;27.30;101437.00;;;;10435967;28;20240;-80
2022/06/04 10:15:45;;;;;;;12.07;7.32;;;;;27.90;101423.00;;;;10451516;28;20279;-80
2022/06/04 10:20:59;;;;;;;9.90;7.85;;;;;27.90;101418.00;;;;10445805;28;20712;-82
2022/06/04 10:26:22;;;;;;;10.48;8.10;;;;;27.20;101400.00;;;;10473219;28;20212;-80
2022/06/04 10:31:49;;;;;;;11.25;8.43;;;;;28.00;101387.00;;;;10433931;28;20202;-81
2022/06/04 10:37:40;;;;;;;10.13;8.32;;;;;28.70;101401.00;;;;10443786;28;20186;-81
2022/06/04 10:42:48;;;;;;;8.63;7.82;;;;;29.00;101409.00;;;;10364335;28;20211;-82
2022/06/04 10:48:03;;;;;;;13.57;7.93;;;;;29.30;101415.00;;;;10444491;28;20198;-82
2022/06/04 10:53:36;;;;;;;8.70;7.80;;;;;29.80;101410.00;;;;10472789;28;20189;-81
2022/06/04 10:58:45;;;;;;;10.10;8.00;;;;;30.60;101425.00;;;;10467631;28;20198;-83
2022/06/04 11:04:04;;;;;;;8.77;7.97;;;;;31.00;101430.00;;;;10439403;28;20294;-83
2022/06/04 11:09:16;;;;;;;9.57;7.90;;;;;30.70;101420.00;;;;10470936;28;20197;-83
2022/06/04 11:14:26;;;;;;;14.30;8.57;;;;;30.30;101411.00;;;;10473051;28;20229;-83
2022/06/04 11:19:35;;;;;;;14.55;9.35;;;;;30.20;101408.00;;;;10490428;28;20247;-82
2022/06/04 11:24:58;;;;;;;8.70;7.90;;;;;30.40;101393.00;;;;10440211;28;20209;-83
2022/06/04 11:30:03;;;;;;;11.85;9.00;;;;;30.70;101382.00;;;;10434226;28;20217;-83
2022/06/04 11:35:21;;;;;;;11.00;8.55;;;;;30.30;101381.00;;;;10436619;28;20830;-82
2022/06/04 11:40:46;;;;;;;13.27;7.85;;;;;30.60;101388.00;;;;10458358;28;20208;-84
2022/06/04 11:46:23;;;;;;;15.32;8.48;;;;;31.00;101394.00;;;;10442793;28;20193;-83
2022/06/04 11:51:44;;;;;;;9.50;8.55;;;;;31.10;101378.00;;;;10438569;28;20192;-83
2022/06/04 11:57:39;;;;;;;13.20;9.55;;;;;31.20;101371.00;;;;10470298;28;20197;-83
2022/06/04 12:03:08;;;;;;;11.52;8.40;;;;;31.50;101378.00;;;;10412533;28;20217;-83
2022/06/04 12:08:19;;;;;;;11.55;8.68;;;;;30.80;101370.00;;;;10465981;28;20182;-81
2022/06/04 12:13:42;;;;;;;12.60;9.32;;;;;30.60;101366.00;;;;10470559;28;20296;-81
2022/06/04 12:18:57;;;;;;;10.70;8.15;;;;;30.60;101359.00;;;;10451046;28;20225;-83
2022/06/04 12:24:17;;;;;;;8.82;7.90;;;;;30.90;101368.00;;;;10441094;28;20207;-83
2022/06/04 12:29:28;;;;;;;10.95;7.63;;;;;31.00;101361.00;;;;10447689;28;20224;-81
2022/06/04 12:34:37;;;;;;;12.13;9.55;;;;;31.00;101367.00;;;;10449087;28;20196;-82
2022/06/04 12:39:43;;;;;;;22.85;10.80;;;;;30.50;101348.00;;;;10470500;28;20201;-82
2022/06/04 12:45:04;;;;;;;10.57;8.90;;;;;30.40;101344.00;;;;10472622;28;20201;-83
2022/06/04 12:50:16;;;;;;;10.15;8.90;;;;;30.50;101338.00;;;;10490901;28;20216;-83
2022/06/04 12:55:26;;;;;;;12.82;9.27;;;;;30.60;101341.00;;;;10451937;28;20194;-82
2022/06/04 13:00:34;;;;;;;12.13;9.40;;;;;30.30;101327.00;;;;10468753;28;20217;-83
2022/06/04 13:05:57;;;;;;;12.45;9.15;;;;;30.80;101348.00;;;;10436113;28;20934;-82
2022/06/04 13:11:21;;;;;;;9.70;8.77;;;;;31.00;101335.00;;;;10452893;28;20214;-82
2022/06/04 13:16:29;;;;;;;9.15;8.35;;;;;31.10;101336.00;;;;10451646;28;20186;-83
2022/06/04 13:21:32;;;;;;;12.00;8.98;;;;;30.70;101339.00;;;;10464754;28;20201;-82
2022/06/04 13:26:39;;;;;;;10.10;9.10;;;;;30.80;101338.00;;;;10509136;28;20693;-82
2022/06/04 13:31:50;;;;;;;10.30;9.40;;;;;30.90;101336.00;;;;10459814;28;20197;-82
2022/06/04 13:37:01;;;;;;;8.48;7.78;;;;;31.20;101343.00;;;;10472603;28;20257;-82
2022/06/04 13:42:19;;;;;;;9.60;8.57;;;;;32.10;101325.00;;;;10476873;28;20292;-82
2022/06/04 13:47:25;;;;;;;9.20;8.40;;;;;33.10;101321.00;;;;10462650;28;20211;-82
2022/06/04 13:52:27;;;;;;;9.65;8.70;;;;;33.60;101325.00;;;;10510133;28;20198;-82
2022/06/04 13:57:41;;;;;;;8.32;6.63;;;;;33.10;101323.00;;;;10449689;28;20205;-82
2022/06/04 14:02:45;;;;;;;10.77;6.85;;;;;34.40;101303.00;;;;10448181;28;20205;-81
2022/06/04 14:07:48;;;;;;;8.18;6.65;;;;;35.70;101304.00;;;;10470820;28;20213;-82
2022/06/04 14:13:09;;;;;;;10.05;6.68;;;;;36.70;101291.00;;;;10463717;28;20202;-83
2022/06/04 14:18:34;;;;;;;7.28;6.63;;;;;37.30;101292.00;;;;10420080;28;20193;-82
2022/06/04 14:24:09;;;;;;;8.18;6.05;;;;;37.90;101286.00;;;;10438645;28;20202;-82
2022/06/04 14:29:32;;;;;;;7.18;6.47;;;;;38.10;101280.00;;;;10464670;28;20170;-83
2022/06/04 14:34:43;;;;;;;8.20;6.78;;;;;38.30;101278.00;;;;10446650;28;20186;-83
2022/06/04 14:39:46;;;;;;;6.13;5.63;;;;;39.00;101275.00;;;;10429236;28;20204;-83
2022/06/04 14:45:00;;;;;;;7.63;6.00;;;;;39.20;101266.00;;;;10445510;28;20201;-82
2022/06/04 14:50:40;;;;;;;6.65;6.05;;;;;37.00;101257.00;;;;10449071;28;20211;-82
2022/06/04 14:56:07;;;;;;;6.72;5.60;;;;;38.90;101247.00;;;;10450850;28;20219;-82
2022/06/04 15:01:15;;;;;;;6.97;5.97;;;;;39.40;101255.00;;;;10463716;28;20209;-83
2022/06/04 15:06:48;;;;;;;8.40;6.15;;;;;39.50;101245.00;;;;10436706;28;20277;-83
2022/06/04 15:12:24;;;;;;;7.20;4.28;;;;;39.50;101240.00;;;;10466800;28;20185;-83
2022/06/04 15:17:46;;;;;;;5.57;4.82;;;;;40.10;101235.00;;;;10448837;28;20216;-83
2022/06/04 15:23:02;;;;;;;8.15;5.68;;;;;40.10;101219.00;;;;10451171;28;20240;-84
2022/06/04 15:33:55;;;;;;;5.53;5.03;;;;;35.90;101227.00;;;;10423806;28;20196;-83
2022/06/04 15:39:16;;;;;;;6.93;4.90;;;;;32.50;101226.00;;;;10438664;28;20189;-83
2022/06/04 15:44:19;;;;;;;5.78;5.18;;;;;32.60;101219.00;;;;10441589;28;20209;-82
2022/06/04 16:00:24;;;;;;;6.30;4.68;;;;;30.30;101234.00;;;;10422135;28;20193;-83
2022/06/04 16:05:28;;;;;;;5.78;5.03;;;;;29.80;101224.00;;;;10436595;28;20711;-82
2022/06/04 16:10:37;;;;;;;5.55;5.05;;;;;28.80;101212.00;;;;10457536;28;20198;-83
2022/06/04 16:15:52;;;;;;;6.10;4.88;;;;;28.50;101193.00;;;;10476997;28;20193;-84
2022/06/04 16:21:32;;;;;;;7.03;4.90;;;;;28.40;101187.00;;;;10459774;28;20584;-83
2022/06/04 16:26:46;;;;;;;6.57;4.32;;;;;28.20;101175.00;;;;10458372;28;20230;-83
2022/06/04 16:32:11;;;;;;;7.63;5.25;;;;;28.10;101173.00;;;;10458571;28;20896;-83
2022/06/04 16:37:38;;;;;;;7.80;4.72;;;;;28.10;101175.00;;;;10457808;28;20331;-84
2022/06/04 16:42:44;;;;;;;6.05;4.80;;;;;28.00;101183.00;;;;10460155;28;20214;-84
2022/06/04 16:47:57;;;;;;;6.25;4.55;;;;;28.00;101188.00;;;;10455806;28;20664;-83
2022/06/04 16:53:01;;;;;;;7.10;4.28;;;;;27.80;101187.00;;;;10401774;28;20289;-83
2022/06/04 16:58:04;;;;;;;8.00;5.07;;;;;27.70;101207.00;;;;10410281;28;20205;-83
2022/06/04 17:03:40;;;;;;;6.70;4.40;;;;;27.80;101193.00;;;;10414855;28;20324;-83
2022/06/04 17:09:19;;;;;;;4.80;4.10;;;;;27.80;101200.00;;;;10454436;28;20559;-83
2022/06/04 17:14:21;;;;;;;5.57;4.28;;;;;27.70;101190.00;;;;10460817;28;20611;-83
2022/06/04 17:19:41;;;;;;;5.07;4.60;;;;;27.60;101178.00;;;;10446966;28;20260;-83
2022/06/04 17:25:03;;;;;;;5.00;4.47;;;;;27.60;101183.00;;;;10443958;28;20232;-83
2022/06/04 17:30:10;;;;;;;4.95;3.90;;;;;27.70;101170.00;;;;10454393;28;20247;-83
2022/06/04 17:35:33;;;;;;;6.43;4.78;;;;;27.80;101157.00;;;;10461004;28;20605;-83
2022/06/04 17:40:38;;;;;;;5.60;4.22;;;;;27.70;101158.00;;;;10444493;28;20213;-83
2022/06/04 17:45:40;;;;;;;5.35;4.07;;;;;27.40;101165.00;;;;10460336;28;20652;-83
2022/06/04 17:50:44;;;;;;;6.43;4.15;;;;;27.10;101158.00;;;;10436595;28;20198;-83
2022/06/04 17:55:46;;;;;;;5.47;3.88;;;;;26.90;101158.00;;;;10421998;28;20544;-83
2022/06/04 18:00:49;;;;;;;5.57;4.03;;;;;26.60;101158.00;;;;10447709;28;20213;-83
2022/06/04 18:05:51;;;;;;;5.50;4.60;;;;;26.30;101150.00;;;;10445506;28;20214;-83
2022/06/04 18:10:53;;;;;;;3.88;3.58;;;;;26.10;101149.00;;;;10450600;28;20205;-82
2022/06/04 18:15:55;;;;;;;5.45;4.00;;;;;25.90;101140.00;;;;10422852;28;20190;-84
2022/06/04 18:20:57;;;;;;;9.32;4.45;;;;;25.70;101137.00;;;;10415966;28;20240;-84
2022/06/04 18:26:06;;;;;;;4.25;3.88;;;;;25.60;101136.00;;;;10418682;28;20194;-83
2022/06/04 18:31:18;;;;;;;6.57;4.03;;;;;25.40;101136.00;;;;10424148;28;20199;-84
2022/06/04 18:36:22;;;;;;;5.22;4.43;;;;;25.20;101138.00;;;;10418699;28;20198;-83
2022/06/04 18:41:23;;;;;;;5.10;4.50;;;;;25.00;101141.00;;;;10436566;28;20310;-84
2022/06/04 18:57:12;;;;;;;11.95;4.35;;;;;24.50;101145.00;;;;10475652;28;20198;-83
2022/06/04 19:02:17;;;;;;;5.43;4.82;;;;;24.30;101151.00;;;;10471043;28;20214;-83
2022/06/04 19:18:00;;;;;;;5.03;4.50;;;;;23.70;101164.00;;;;10450524;28;20197;-84
2022/06/04 19:28:22;;;;;;;6.65;4.68;;;;;23.40;101169.00;;;;10447428;28;20198;-84
2022/06/04 19:33:24;;;;;;;6.85;5.25;;;;;23.30;101169.00;;;;10414908;28;20190;-83
2022/06/04 19:38:26;;;;;;;8.63;5.57;;;;;23.20;101173.00;;;;10415626;28;20676;-83
2022/06/04 19:43:28;;;;;;;7.90;5.75;;;;;23.10;101167.00;;;;10437119;28;20228;-83
2022/06/04 19:48:31;;;;;;;5.75;5.20;;;;;23.00;101169.00;;;;10439629;28;20651;-83
2022/06/04 19:58:55;;;;;;;6.07;5.18;;;;;22.90;101178.00;;;;10472994;28;20272;-83
2022/06/04 20:03:57;;;;;;;5.57;4.93;;;;;22.90;101171.00;;;;10455558;28;20231;-83
2022/06/04 20:08:59;;;;;;;5.50;5.05;;;;;22.80;101176.00;;;;10455158;28;20276;-83
2022/06/04 20:14:04;;;;;;;5.63;4.85;;;;;22.70;101193.00;;;;10440101;28;20193;-83
2022/06/04 20:19:06;;;;;;;6.65;5.15;;;;;22.70;101180.00;;;;10456276;28;20193;-83
2022/06/04 20:24:08;;;;;;;6.57;5.07;;;;;22.70;101168.00;;;;10455635;28;20592;-83
2022/06/04 20:29:11;;;;;;;6.30;5.55;;;;;22.60;101165.00;;;;10456447;28;20185;-83
2022/06/04 20:34:14;;;;;;;10.85;5.13;;;;;22.60;101163.00;;;;10405455;28;20604;-82
2022/06/04 20:39:17;;;;;;;5.35;4.88;;;;;22.60;101145.00;;;;10434753;28;20248;-84
2022/06/04 20:44:19;;;;;;;6.47;5.50;;;;;22.60;101153.00;;;;10430778;28;20267;-83
2022/06/04 20:49:21;;;;;;;8.32;5.55;;;;;22.60;101161.00;;;;10455000;28;20197;-83
2022/06/04 20:54:23;;;;;;;5.10;4.70;;;;;22.50;101152.00;;;;10445932;28;20209;-83
2022/06/04 20:59:26;;;;;;;7.00;5.18;;;;;22.50;101143.00;;;;10422469;28;20202;-83
2022/06/04 21:04:28;;;;;;;7.70;5.10;;;;;22.50;101138.00;;;;10433636;28;20229;-83
2022/06/04 21:09:31;;;;;;;5.60;5.07;;;;;22.40;101147.00;;;;10481115;28;20624;-83
2022/06/04 21:14:33;;;;;;;6.32;4.53;;;;;22.30;101161.00;;;;10447908;28;20190;-82
2022/06/04 21:19:35;;;;;;;10.10;4.65;;;;;22.30;101164.00;;;;10442931;28;20193;-83
2022/06/04 21:24:37;;;;;;;8.50;5.10;;;;;22.30;101170.00;;;;10462977;28;20684;-83
2022/06/04 21:29:39;;;;;;;5.32;4.53;;;;;22.30;101164.00;;;;10480356;28;20185;-83
2022/06/04 21:40:03;;;;;;;9.32;5.05;;;;;22.20;101153.00;;;;10462509;28;20195;-83
2022/06/04 21:45:07;;;;;;;9.05;4.97;;;;;22.10;101146.00;;;;10472482;28;20209;-83
2022/06/04 21:50:11;;;;;;;7.03;4.35;;;;;22.00;101137.00;;;;10445350;28;20205;-83
2022/06/04 21:55:14;;;;;;;5.75;4.40;;;;;22.00;101125.00;;;;10441233;28;20206;-83
2022/06/04 22:00:19;;;;;;;6.57;4.63;;;;;21.90;101133.00;;;;10460589;28;20236;-83
2022/06/04 22:05:22;;;;;;;7.32;5.07;;;;;21.60;101140.00;;;;10441732;28;20218;-83
2022/06/04 22:10:24;;;;;;;6.40;5.13;;;;;21.20;101144.00;;;;10454093;28;20220;-82
2022/06/04 22:15:26;;;;;;;6.50;5.55;;;;;20.80;101161.00;;;;10461861;28;20197;-83
2022/06/04 22:20:28;;;;;;;5.57;5.07;;;;;20.50;101175.00;;;;10419037;28;20206;-82
2022/06/04 22:25:30;;;;;;;9.65;6.85;;;;;20.20;101190.00;;;;10467081;28;20350;-82
2022/06/04 22:30:34;;;;;;;10.00;7.32;;;;;19.60;101202.00;;;;10453118;28;20190;-81
2022/06/04 22:35:39;;;;;;;8.52;7.65;;;;;19.00;101246.00;;;;10450758;28;20186;-81
2022/06/04 22:40:43;;;;;;;10.60;9.05;;;;;18.70;101265.00;;;;10445574;28;20208;-80
2022/06/04 22:45:46;;;;;;;11.65;9.60;;;;;18.50;101278.00;;;;10459502;28;20213;-81
2022/06/04 22:50:48;;;;;;;16.02;10.70;;;;;18.30;101292.00;;;;10415028;28;20263;-84
2022/06/04 22:55:50;;;;;;;15.20;10.93;;;;;18.00;101274.00;;;;10453942;28;20273;-82
2022/06/04 23:00:52;;;;;;;11.15;10.02;;;;;17.80;101261.00;;;;10471102;28;20193;-82
2022/06/04 23:05:54;;;;;;;13.43;11.25;;;;;17.60;101241.00;;;;10457946;28;20220;-83
2022/06/04 23:21:37;;;;;;;15.30;13.75;;;;;17.50;101203.00;;;;10474369;28;20213;-81
2022/06/04 23:26:39;;;;;;;22.10;15.77;;;;;17.50;101180.00;;;;10456768;28;20208;-81
2022/06/04 23:31:41;;;;;;;16.95;15.45;;;;;17.40;101185.00;;;;10429540;28;20200;-81
2022/06/04 23:36:43;;;;;;;16.45;14.70;;;;;17.30;101167.00;;;;10423014;28;20218;-81
2022/06/04 23:42:03;;;;;;;21.08;15.18;;;;;17.30;101175.00;;;;10413822;28;20210;-81
2022/06/04 23:47:06;;;;;;;18.50;15.32;;;;;17.30;101171.00;;;;10421528;28;20653;-81
2022/06/04 23:52:08;;;;;;;18.17;16.30;;;;;17.30;101185.00;;;;10444317;28;20201;-80
2022/06/04 23:57:11;;;;;;;18.35;16.65;;;;;17.30;101181.00;;;;10467146;28;20201;-80
